sensor_id;sensor_type;location;lat;lon;timestamp;pressure;altitude;pressure_sealevel;temperature;humidity
61740;BME280;47645;45.288;12.038;2022-09-21T00:01:27;1018.5844063992932;;;16.6451171875;71.35685417810438
61740;BME280;47645;45.288;12.038;2022-09-21T00:11:28;1018.771672934839;;;16.604296875;70.76689259223261
61740;BME280;47645;45.288;12.038;2022-09-21T00:21:27;1019.0814985410619;;;16.6248046875;70.6160414273407
61740;BME280;47645;45.288;12.038;2022-09-21T00:31:29;1019.4084196467713;;;16.36484375;70.47983337348528
61740;BME280;47645;45.288;12.038;2022-09-21T00:41:31;1019.4370073015411;;;16.5431640625;68.76561131032474
61740;BME280;47645;45.288;12.038;2022-09-21T00:51:30;1019.5366596611394;;;16.604296875;70.0218378783055
61740;BME280;47645;45.288;12.038;2022-09-21T01:01:31;1019.3928700583704;;;16.2169921875;69.62301325509371
61740;BME280;47645;45.288;12.038;2022-09-21T01:11:39;1019.6489506691655;;;16.13046875;75.04655873140537
61740;BME280;47645;45.288;12.038;2022-09-21T01:21:35;1019.9417277067573;;;15.7888671875;81.10941577684905
61740;BME280;47645;45.288;12.038;2022-09-21T01:31:37;1020.1804403228009;;;15.212890625;82.90334658632916
61740;BME280;47645;45.288;12.038;2022-09-21T01:41:36;1020.202842495558;;;14.8306640625;83.14607835987934
61740;BME280;47645;45.288;12.038;2022-09-21T01:51:40;1020.1931916686771;;;14.9326171875;82.64628981387527
61740;BME280;47645;45.288;12.038;2022-09-21T02:01:42;1020.2422591940993;;;14.8357421875;84.12498857538951
61740;BME280;47645;45.288;12.038;2022-09-21T02:11:42;1020.1274973962751;;;14.871484375;84.42682998221507
61740;BME280;47645;45.288;12.038;2022-09-21T02:21:50;1020.0411448697855;;;15.4474609375;78.87178232598234
61740;BME280;47645;45.288;12.038;2022-09-21T02:31:47;1019.7485927785388;;;15.727734375;75.20613466518623
61740;BME280;47645;45.288;12.038;2022-09-21T02:41:49;1019.4912166715008;;;16.3392578125;68.60491687768122
61740;BME280;47645;45.288;12.038;2022-09-21T02:51:45;1019.3938262219433;;;16.380078125;66.45273435052691
61740;BME280;47645;45.288;12.038;2022-09-21T03:01:43;1019.7215094983248;;;15.544140625;72.42324905560662
61740;BME280;47645;45.288;12.038;2022-09-21T03:11:44;1019.8682143029441;;;15.5798828125;80.92115140596857
61740;BME280;47645;45.288;12.038;2022-09-21T03:21:45;1019.9043189976344;;;15.85;72.96094225152136
61740;BME280;47645;45.288;12.038;2022-09-21T03:31:47;1019.9728727910419;;;15.5798828125;79.29875365482735
61740;BME280;47645;45.288;12.038;2022-09-21T03:41:47;1020.0843598537393;;;15.62578125;74.01629480135314
61740;BME280;47645;45.288;12.038;2022-09-21T03:51:48;1020.306154642409;;;15.2078125;76.38657917441543
61740;BME280;47645;45.288;12.038;2022-09-21T04:01:49;1020.4403585186822;;;14.8560546875;78.55473115176584
61740;BME280;47645;45.288;12.038;2022-09-21T04:11:51;1020.5548553590093;;;14.1169921875;84.68836523268712
61740;BME280;47645;45.288;12.038;2022-09-21T04:21:52;1020.548633884978;;;14.1986328125;81.64000363114543
61740;BME280;47645;45.288;12.038;2022-09-21T04:31:52;1020.6513855768069;;;14.269921875;82.19351338259733
61740;BME280;47645;45.288;12.038;2022-09-21T04:41:53;1020.8222693313448;;;15.3708984375;71.31467368239598
61740;BME280;47645;45.288;12.038;2022-09-21T04:51:54;1020.8897784156752;;;14.794921875;73.62419215908454
61740;BME280;47645;45.288;12.038;2022-09-21T05:01:55;1020.9579439358998;;;14.9580078125;71.7057034293809
61740;BME280;47645;45.288;12.038;2022-09-21T05:11:56;1021.0087123516408;;;14.657421875;77.5271998481805
61740;BME280;47645;45.288;12.038;2022-09-21T05:21:57;1020.9417924228854;;;14.4943359375;75.25596414544859
61740;BME280;47645;45.288;12.038;2022-09-21T05:32:05;1020.8942694164666;;;14.483984375;74.79451402379235
61740;BME280;47645;45.288;12.038;2022-09-21T05:41:59;1020.9689405324175;;;14.3005859375;75.16661460001129
61740;BME280;47645;45.288;12.038;2022-09-21T05:52:05;1020.9840769348316;;;14.015234375;76.63147861548978
61740;BME280;47645;45.288;12.038;2022-09-21T06:02:05;1021.0731255112877;;;14.055859375;76.39898872678401
61740;BME280;47645;45.288;12.038;2022-09-21T06:12:02;1021.0377390645859;;;14.239453125;75.15076336778557
61740;BME280;47645;45.288;12.038;2022-09-21T06:22:02;1021.125220312953;;;14.4025390625;74.26083270119632
61740;BME280;47645;45.288;12.038;2022-09-21T06:32:04;1021.3021962854815;;;14.90703125;71.6120138394325
61740;BME280;47645;45.288;12.038;2022-09-21T06:42:04;1021.3153587349148;;;15.3759765625;70.4037620535226
61740;BME280;47645;45.288;12.038;2022-09-21T06:52:06;1021.2976494204115;;;15.5646484375;71.53146567127676
61740;BME280;47645;45.288;12.038;2022-09-21T07:02:07;1021.4109703096296;;;15.7021484375;69.5320781148451
61740;BME280;47645;45.288;12.038;2022-09-21T07:12:07;1021.4161912517457;;;15.834765625;68.81907871477851
61740;BME280;47645;45.288;12.038;2022-09-21T07:22:08;1021.5597333991906;;;16.135546875;70.31663029177706
61740;BME280;47645;45.288;12.038;2022-09-21T07:32:11;1021.6312002909674;;;16.5330078125;67.9179595031792
61740;BME280;47645;45.288;12.038;2022-09-21T07:42:10;1021.623707191624;;;17.0171875;69.43606315238038
61740;BME280;47645;45.288;12.038;2022-09-21T07:52:11;1021.7619486529276;;;17.3892578125;67.08583851869875
61740;BME280;47645;45.288;12.038;2022-09-21T08:02:12;1021.7204778914715;;;17.837890625;56.029421159001025
61740;BME280;47645;45.288;12.038;2022-09-21T08:12:13;1021.7925573546765;;;18.17421875;53.12439324895466
61740;BME280;47645;45.288;12.038;2022-09-21T08:22:14;1021.9035245372185;;;18.469921875;51.38474027330022
61740;BME280;47645;45.288;12.038;2022-09-21T08:32:15;1021.9423718680387;;;18.663671875;48.036515915146595
61740;BME280;47645;45.288;12.038;2022-09-21T08:42:33;1022.0433579290163;;;19.01015625;52.72808388823708
61740;BME280;47645;45.288;12.038;2022-09-21T08:52:19;1022.0868527200369;;;19.015234375;45.85541807547595
61740;BME280;47645;45.288;12.038;2022-09-21T09:02:32;1022.1046210067236;;;19.63203125;51.038779944993564
61740;BME280;47645;45.288;12.038;2022-09-21T09:12:31;1022.258052176338;;;20.1724609375;44.38137817426075
61740;BME280;47645;45.288;12.038;2022-09-21T09:22:24;1022.2719772160713;;;21.0287109375;44.952787232097606
61740;BME280;47645;45.288;12.038;2022-09-21T09:32:27;1022.1886199366801;;;21.6607421875;42.63597732933401
61740;BME280;47645;45.288;12.038;2022-09-21T09:42:32;1022.2738398337303;;;21.4314453125;44.428518079373845
61740;BME280;47645;45.288;12.038;2022-09-21T09:52:24;1022.1459783674765;;;22.348828125;41.99423861763444
61740;BME280;47645;45.288;12.038;2022-09-21T10:02:27;1022.0871362673506;;;23.4142578125;40.6228124800524
61740;BME280;47645;45.288;12.038;2022-09-21T10:12:27;1022.0222569970289;;;24.066796875;36.823685736254944
61740;BME280;47645;45.288;12.038;2022-09-21T10:22:28;1021.9885995446398;;;24.3572265625;35.97452371677612
61740;BME280;47645;45.288;12.038;2022-09-21T10:32:29;1021.9784785093789;;;24.6326171875;36.73766978095572
61740;BME280;47645;45.288;12.038;2022-09-21T10:42:34;1022.005648092516;;;24.892578125;34.47630240860039
61740;BME280;47645;45.288;12.038;2022-09-21T10:52:34;1021.9767252660167;;;23.7048828125;32.45248515628365
61740;BME280;47645;45.288;12.038;2022-09-21T11:02:35;1022.0074354982224;;;25.71328125;33.71938412615839
61740;BME280;47645;45.288;12.038;2022-09-21T11:12:44;1022.0180609873736;;;25.0046875;32.6202903731423
61740;BME280;47645;45.288;12.038;2022-09-21T11:22:41;1022.031493478163;;;25.203515625;33.46572352661859
61740;BME280;47645;45.288;12.038;2022-09-21T11:32:51;1021.9250475161218;;;26.1873046875;32.35372010450807
61740;BME280;47645;45.288;12.038;2022-09-21T11:42:50;1022.0033058003643;;;25.63671875;34.05235982469496
61740;BME280;47645;45.288;12.038;2022-09-21T11:52:49;1021.929550403112;;;26.4013671875;32.25033631188825
61740;BME280;47645;45.288;12.038;2022-09-21T12:02:59;1021.9827373451492;;;25.5552734375;30.513760169962076
61740;BME280;47645;45.288;12.038;2022-09-21T12:12:48;1021.877698392615;;;27.2986328125;31.85282030941573
61740;BME280;47645;45.288;12.038;2022-09-21T12:22:49;1021.7099909675028;;;27.2986328125;31.350090740050177
61740;BME280;47645;45.288;12.038;2022-09-21T12:32:57;1021.83086953328;;;25.534765625;29.856348192060324
61740;BME280;47645;45.288;12.038;2022-09-21T12:42:51;1021.7837846608569;;;24.596875;30.727886749647034
61740;BME280;47645;45.288;12.038;2022-09-21T12:52:50;1021.6724231165093;;;26.2177734375;30.382028597334255
61740;BME280;47645;45.288;12.038;2022-09-21T13:02:54;1021.6099536752464;;;26.1923828125;26.956613259723255
61740;BME280;47645;45.288;12.038;2022-09-21T13:12:55;1021.5305645460738;;;26.14140625;32.79196513831833
61740;BME280;47645;45.288;12.038;2022-09-21T13:22:58;1021.4627686035776;;;25.85078125;34.357682731008495
61740;BME280;47645;45.288;12.038;2022-09-21T13:32:55;1021.4226722235109;;;26.946875;31.11836290672744
61740;BME280;47645;45.288;12.038;2022-09-21T13:43:18;1021.3147853183433;;;27.079296875;30.08080783580835
61740;BME280;47645;45.288;12.038;2022-09-21T13:53:01;1021.2288366938249;;;27.1302734375;33.63196859622393
61740;BME280;47645;45.288;12.038;2022-09-21T14:03:06;1021.2292024805735;;;26.8193359375;34.255800563344806
61740;BME280;47645;45.288;12.038;2022-09-21T14:13:05;1021.3320754800159;;;27.1251953125;34.98078432244011
61740;BME280;47645;45.288;12.038;2022-09-21T14:23:39;1021.2352296100231;;;27.3189453125;35.02484197801145
61740;BME280;47645;45.288;12.038;2022-09-21T14:33:23;1021.273505814503;;;26.962109375;34.17782221614842
61740;BME280;47645;45.288;12.038;2022-09-21T14:43:14;1021.2974861745881;;;26.9927734375;37.04232636280335
61740;BME280;47645;45.288;12.038;2022-09-21T14:53:33;1021.2454197350748;;;26.885546875;37.24141088992018
61740;BME280;47645;45.288;12.038;2022-09-21T15:03:24;1021.272705472809;;;26.5236328125;33.648040113031854
61740;BME280;47645;45.288;12.038;2022-09-21T15:13:18;1021.2171434835668;;;26.5287109375;36.67357908060509
61740;BME280;47645;45.288;12.038;2022-09-21T15:23:17;1021.1683686930569;;;26.1720703125;38.35334993476208
61740;BME280;47645;45.288;12.038;2022-09-21T15:33:14;1021.1578083802436;;;25.5552734375;38.839242962314984
61740;BME280;47645;45.288;12.038;2022-09-21T15:43:19;1021.1395403473305;;;24.9689453125;39.51491094150745
61740;BME280;47645;45.288;12.038;2022-09-21T15:53:24;1021.1782346416352;;;24.280859375;41.69997145114846
61740;BME280;47645;45.288;12.038;2022-09-21T16:03:20;1021.19940747499;;;23.6333984375;41.2820501357018
61740;BME280;47645;45.288;12.038;2022-09-21T16:23:23;1021.2426248933695;;;22.659765625;45.55241381087276
61740;BME280;47645;45.288;12.038;2022-09-21T16:43:25;1021.2384752471073;;;21.920703125;47.33196394494628
61740;BME280;47645;45.288;12.038;2022-09-21T16:53:28;1021.283483584;;;21.4263671875;48.33464065770236
61740;BME280;47645;45.288;12.038;2022-09-21T17:03:31;1021.277742464094;;;21.0185546875;49.032487908848864
61740;BME280;47645;45.288;12.038;2022-09-21T17:13:29;1021.3353161495453;;;20.6515625;49.46045542791227
61740;BME280;47645;45.288;12.038;2022-09-21T17:23:29;1021.2989016713453;;;20.2181640625;50.52116168684754
61740;BME280;47645;45.288;12.038;2022-09-21T17:33:30;1021.3740344599933;;;19.7849609375;50.69375584671582
61740;BME280;47645;45.288;12.038;2022-09-21T17:43:37;1021.4284579217092;;;19.53515625;51.70960493417659
61740;BME280;47645;45.288;12.038;2022-09-21T17:53:36;1021.4614322843731;;;19.2650390625;52.3759773814997
61740;BME280;47645;45.288;12.038;2022-09-21T18:03:37;1021.4938597935721;;;19.0357421875;52.59181570411702
61740;BME280;47645;45.288;12.038;2022-09-21T18:13:41;1021.6720009253717;;;18.7501953125;53.210319400036916
61740;BME280;47645;45.288;12.038;2022-09-21T18:23:49;1021.7355865528983;;;18.38828125;53.87678830583393
61740;BME280;47645;45.288;12.038;2022-09-21T18:33:45;1021.8551564905679;;;18.1998046875;54.513403747911326
61740;BME280;47645;45.288;12.038;2022-09-21T18:43:54;1021.8850731285133;;;18.138671875;54.1246777641795
61740;BME280;47645;45.288;12.038;2022-09-21T18:53:48;1022.052087646284;;;17.8328125;54.60890315853339
61740;BME280;47645;45.288;12.038;2022-09-21T19:03:43;1022.1381119617462;;;17.55234375;55.309414149245484
61740;BME280;47645;45.288;12.038;2022-09-21T19:13:47;1022.1098620380346;;;17.43515625;55.45261548513008
61740;BME280;47645;45.288;12.038;2022-09-21T19:23:57;1022.1048039524856;;;17.323046875;55.363750663334535
61740;BME280;47645;45.288;12.038;2022-09-21T19:33:46;1022.1090080883149;;;17.2109375;55.575313488847186
61740;BME280;47645;45.288;12.038;2022-09-21T19:43:49;1022.1520546019033;;;17.0427734375;55.597282703577285
61740;BME280;47645;45.288;12.038;2022-09-21T20:03:50;1022.2064259650797;;;16.8642578125;55.6755306253381
61740;BME280;47645;45.288;12.038;2022-09-21T20:14:12;1022.2022866450184;;;16.7470703125;55.801336637747994
61740;BME280;47645;45.288;12.038;2022-09-21T20:23:55;1022.2783401396075;;;16.594140625;55.96574854963367
61740;BME280;47645;45.288;12.038;2022-09-21T20:33:50;1022.2809967076527;;;16.497265625;55.933930679872674
61740;BME280;47645;45.288;12.038;2022-09-21T20:43:51;1022.3314422654685;;;16.359765625;56.22920958060144
61740;BME280;47645;45.288;12.038;2022-09-21T20:53:52;1022.4296306623186;;;16.24765625;56.40015025786526
61740;BME280;47645;45.288;12.038;2022-09-21T21:03:55;1022.4967127341478;;;16.135546875;56.633424273770636
61740;BME280;47645;45.288;12.038;2022-09-21T21:13:55;1022.5155239157449;;;15.9775390625;56.864504437751826
61740;BME280;47645;45.288;12.038;2022-09-21T21:25:00;1022.6155429133645;;;15.8806640625;56.69072861575375
61740;BME280;47645;45.288;12.038;2022-09-21T21:33:57;1022.5371612733493;;;15.7685546875;56.92913744220054
61740;BME280;47645;45.288;12.038;2022-09-21T21:43:58;1022.5415765288948;;;15.620703125;56.97461571888644
61740;BME280;47645;45.288;12.038;2022-09-21T21:53:59;1022.5477485882437;;;15.4626953125;57.29582095463234
61740;BME280;47645;45.288;12.038;2022-09-21T22:04:01;1022.5058680878975;;;15.29453125;57.6784269760028
61740;BME280;47645;45.288;12.038;2022-09-21T22:14:02;1022.5473937213226;;;15.4421875;57.0349049568545
61740;BME280;47645;45.288;12.038;2022-09-21T22:24:03;1022.4607570819015;;;15.31484375;57.06878834814524
61740;BME280;47645;45.288;12.038;2022-09-21T22:34:04;1022.4294087803262;;;15.21796875;57.54510741537675
61740;BME280;47645;45.288;12.038;2022-09-21T22:44:05;1022.4138899363286;;;15.1568359375;57.434842479694325
61740;BME280;47645;45.288;12.038;2022-09-21T22:54:05;1022.3008058679122;;;15.0140625;57.56511453320303
61740;BME280;47645;45.288;12.038;2022-09-21T23:04:08;1022.3066073228244;;;14.871484375;57.807252314536704
61740;BME280;47645;45.288;12.038;2022-09-21T23:14:07;1022.278219507633;;;14.968359375;57.43838986561203
61740;BME280;47645;45.288;12.038;2022-09-21T23:24:08;1022.2521553852007;;;14.9326171875;57.244841371175895
61740;BME280;47645;45.288;12.038;2022-09-21T23:34:13;1022.2234756805129;;;14.8103515625;57.38680774722173
61740;BME280;47645;45.288;12.038;2022-09-21T23:44:10;1022.1750889260744;;;14.7083984375;57.32655101700743
61740;BME280;47645;45.288;12.038;2022-09-21T23:54:11;1022.1894303096166;;;14.5197265625;57.8200318956415
